createdAt,value
2017-07-19T00:00:07.768Z,10.07
2017-07-19T00:02:36.005Z,9.83
2017-07-19T00:05:04.255Z,11.50
2017-07-19T00:07:32.509Z,14.67
2017-07-19T00:10:00.811Z,11.90
2017-07-19T00:12:29.099Z,12.07
2017-07-19T00:14:57.342Z,10.43
2017-07-19T00:17:25.589Z,10.23
2017-07-19T00:19:54.344Z,9.37
2017-07-19T00:22:23.116Z,9.73
2017-07-19T00:24:51.392Z,11.90
2017-07-19T00:27:19.633Z,8.73
2017-07-19T00:29:47.883Z,10.37
2017-07-19T00:32:16.556Z,11.67
2017-07-19T00:34:44.823Z,10.67
2017-07-19T00:37:13.065Z,13.27
2017-07-19T00:39:41.338Z,7.40
2017-07-19T00:42:09.580Z,8.40
2017-07-19T00:44:38.253Z,8.60
2017-07-19T00:47:06.519Z,8.73
2017-07-19T00:49:34.772Z,10.67
2017-07-19T00:52:03.258Z,11.10
2017-07-19T00:54:31.544Z,9.93
2017-07-19T00:56:59.789Z,8.40
2017-07-19T00:59:28.049Z,9.30
2017-07-19T01:01:58.560Z,10.27
2017-07-19T01:04:27.044Z,8.70
2017-07-19T01:06:55.320Z,11.53
2017-07-19T01:09:23.619Z,8.67
2017-07-19T01:11:51.877Z,12.93
2017-07-19T01:14:20.144Z,11.80
2017-07-19T01:16:48.408Z,9.27
2017-07-19T01:19:16.913Z,11.60
2017-07-19T01:21:45.189Z,9.47
2017-07-19T01:24:13.427Z,8.27
2017-07-19T01:26:41.670Z,12.43
2017-07-19T01:29:09.915Z,8.40
2017-07-19T01:31:38.144Z,10.37
2017-07-19T01:34:06.420Z,9.50
2017-07-19T01:36:34.666Z,9.70
2017-07-19T01:39:02.907Z,10.17
2017-07-19T01:41:31.198Z,8.47
2017-07-19T01:43:59.438Z,10.80
2017-07-19T01:46:27.672Z,8.93
2017-07-19T01:48:56.164Z,13.13
2017-07-19T01:51:24.630Z,10.43
2017-07-19T01:53:52.864Z,8.73
2017-07-19T01:56:21.537Z,10.90
2017-07-19T01:58:49.777Z,13.67
2017-07-19T02:01:18.021Z,10.37
2017-07-19T02:03:46.291Z,10.70
2017-07-19T02:06:14.529Z,10.30
2017-07-19T02:08:42.764Z,14.77
2017-07-19T02:11:11.028Z,10.50
2017-07-19T02:13:39.280Z,9.83
2017-07-19T02:16:07.523Z,16.07
2017-07-19T02:18:35.837Z,13.20
2017-07-19T02:21:04.082Z,9.07
2017-07-19T02:23:32.547Z,9.77
2017-07-19T02:26:00.818Z,9.27
2017-07-19T02:28:29.371Z,9.10
2017-07-19T02:30:57.636Z,11.33
2017-07-19T02:33:26.030Z,9.67
2017-07-19T02:35:54.420Z,16.40
2017-07-19T02:38:22.676Z,11.43
2017-07-19T02:40:50.975Z,11.30
2017-07-19T02:43:19.259Z,13.97
2017-07-19T02:45:47.518Z,12.50
2017-07-19T02:48:15.999Z,13.07
2017-07-19T02:50:44.266Z,9.93
2017-07-19T02:53:12.503Z,12.87
2017-07-19T02:55:41.174Z,13.53
2017-07-19T02:58:09.420Z,11.53
2017-07-19T03:00:38.103Z,10.20
2017-07-19T03:03:06.383Z,10.97
2017-07-19T03:05:34.867Z,11.50
2017-07-19T03:08:03.112Z,11.30
2017-07-19T03:10:31.418Z,11.73
2017-07-19T03:12:59.689Z,14.30
2017-07-19T03:15:27.929Z,12.83
2017-07-19T03:17:56.224Z,11.97
2017-07-19T03:20:24.472Z,9.80
2017-07-19T03:22:53.337Z,14.03
2017-07-19T03:25:21.614Z,16.37
2017-07-19T03:27:49.847Z,10.77
2017-07-19T03:30:18.100Z,11.97
2017-07-19T03:32:46.416Z,16.00
2017-07-19T03:35:14.664Z,12.53
2017-07-19T03:37:42.918Z,12.70
2017-07-19T03:40:11.235Z,11.80
2017-07-19T03:42:39.473Z,17.63
2017-07-19T03:45:07.727Z,13.83
2017-07-19T03:47:35.982Z,16.60
2017-07-19T03:50:04.241Z,11.90
2017-07-19T03:52:32.696Z,18.50
2017-07-19T03:55:01.816Z,14.60
2017-07-19T03:57:30.383Z,15.53
2017-07-19T03:59:59.205Z,11.43
2017-07-19T04:02:27.687Z,11.43
2017-07-19T04:04:56.938Z,13.77
2017-07-19T04:07:25.661Z,14.30
2017-07-19T04:09:54.586Z,13.20
2017-07-19T04:12:22.850Z,19.60
2017-07-19T04:14:51.081Z,14.40
2017-07-19T04:17:19.370Z,15.33
2017-07-19T04:19:47.612Z,13.33
2017-07-19T04:22:15.877Z,15.30
2017-07-19T04:24:44.547Z,15.90
2017-07-19T04:27:13.198Z,15.67
2017-07-19T04:29:41.460Z,11.73
2017-07-19T04:32:09.860Z,9.67
2017-07-19T04:34:38.108Z,13.20
2017-07-19T04:37:06.372Z,14.20
2017-07-19T04:39:34.865Z,19.80
2017-07-19T04:42:03.113Z,16.50
2017-07-19T04:44:31.758Z,14.33
2017-07-19T04:47:00.026Z,15.17
2017-07-19T04:49:31.047Z,13.33
2017-07-19T04:51:59.557Z,11.57
2017-07-19T04:54:27.798Z,12.77
2017-07-19T04:56:56.045Z,13.07
2017-07-19T04:59:24.948Z,12.20
2017-07-19T05:01:53.197Z,12.30
2017-07-19T05:04:22.152Z,13.93
2017-07-19T05:06:50.508Z,12.80
2017-07-19T05:09:18.754Z,12.20
2017-07-19T05:11:47.020Z,13.80
2017-07-19T05:14:15.280Z,47.23
2017-07-19T05:16:43.533Z,12.80
2017-07-19T05:19:12.745Z,15.03
2017-07-19T05:21:41.160Z,13.90
2017-07-19T05:24:09.439Z,15.10
2017-07-19T05:26:37.697Z,16.43
2017-07-19T05:29:05.973Z,16.27
2017-07-19T05:31:34.611Z,11.53
2017-07-19T05:34:02.851Z,14.43
2017-07-19T05:36:31.136Z,11.17
2017-07-19T05:38:59.379Z,13.53
2017-07-19T05:41:27.655Z,13.90
2017-07-19T05:43:55.929Z,15.00
2017-07-19T05:46:24.219Z,13.30
2017-07-19T05:48:52.475Z,13.33
2017-07-19T05:51:20.793Z,9.50
2017-07-19T05:53:49.044Z,12.90
2017-07-19T05:56:17.676Z,10.77
2017-07-19T05:58:45.953Z,13.17
2017-07-19T06:01:14.213Z,14.23
2017-07-19T06:03:42.484Z,13.40
2017-07-19T06:06:10.783Z,11.27
2017-07-19T06:08:39.070Z,15.97
2017-07-19T06:11:07.851Z,15.90
2017-07-19T06:13:36.193Z,12.40
2017-07-19T06:16:04.481Z,10.43
2017-07-19T06:18:32.728Z,11.13
2017-07-19T06:21:01.405Z,12.30
2017-07-19T06:23:30.583Z,16.17
2017-07-19T06:25:58.880Z,15.33
2017-07-19T06:28:27.592Z,18.27
2017-07-19T06:30:55.820Z,9.60
2017-07-19T06:33:24.072Z,11.80
2017-07-19T06:35:52.328Z,9.30
2017-07-19T06:38:20.584Z,9.27
2017-07-19T06:40:48.837Z,9.80
2017-07-19T06:43:17.341Z,10.20
2017-07-19T06:45:45.575Z,11.43
2017-07-19T06:48:13.824Z,15.90
2017-07-19T06:50:42.100Z,10.07
2017-07-19T06:53:10.342Z,8.30
2017-07-19T06:55:38.968Z,10.67
2017-07-19T06:58:07.250Z,10.77
2017-07-19T07:00:35.538Z,11.97
2017-07-19T07:03:04.344Z,10.67
2017-07-19T07:05:32.711Z,8.43
2017-07-19T07:08:01.056Z,8.13
2017-07-19T07:10:29.980Z,12.07
2017-07-19T07:12:58.291Z,18.23
2017-07-19T07:15:26.670Z,15.57
2017-07-19T07:17:55.235Z,8.43
2017-07-19T07:20:23.575Z,12.30
2017-07-19T07:22:51.821Z,7.43
2017-07-19T07:25:20.574Z,10.17
2017-07-19T07:27:49.044Z,8.30
2017-07-19T07:30:17.291Z,7.93
2017-07-19T07:32:45.564Z,11.13
2017-07-19T07:35:13.881Z,10.50
2017-07-19T07:37:42.167Z,13.47
2017-07-19T07:40:10.612Z,7.83
2017-07-19T07:42:38.917Z,8.10
2017-07-19T07:45:07.396Z,9.07
2017-07-19T07:47:35.666Z,6.90
2017-07-19T07:50:03.928Z,9.27
2017-07-19T07:52:32.242Z,11.13
2017-07-19T07:55:00.556Z,7.97
2017-07-19T07:57:28.863Z,6.70
2017-07-19T07:59:57.114Z,7.90
2017-07-19T08:02:25.412Z,12.33
2017-07-19T08:04:53.697Z,8.70
2017-07-19T08:07:21.937Z,11.80
2017-07-19T08:09:50.237Z,7.37
2017-07-19T08:12:18.555Z,8.90
2017-07-19T08:14:47.196Z,8.53
2017-07-19T08:17:15.743Z,6.50
2017-07-19T08:19:44.111Z,9.60
2017-07-19T08:22:12.417Z,7.20
2017-07-19T08:24:40.726Z,13.20
2017-07-19T08:27:09.082Z,7.00
2017-07-19T08:29:37.384Z,14.53
2017-07-19T08:32:05.644Z,13.00
2017-07-19T08:34:34.058Z,6.33
2017-07-19T08:37:02.714Z,7.53
2017-07-19T08:39:30.970Z,10.40
2017-07-19T08:41:59.257Z,15.87
2017-07-19T08:44:27.547Z,11.50
2017-07-19T08:46:55.799Z,13.13
2017-07-19T08:49:24.053Z,6.30
2017-07-19T08:51:52.298Z,5.10
2017-07-19T08:54:20.587Z,8.13
2017-07-19T08:56:49.226Z,9.90
2017-07-19T08:59:18.581Z,8.80
2017-07-19T09:01:46.840Z,7.73
2017-07-19T09:04:15.078Z,7.37
2017-07-19T09:06:43.379Z,5.80
2017-07-19T09:09:12.352Z,8.47
2017-07-19T09:11:40.610Z,12.70
2017-07-19T09:14:08.887Z,5.63
2017-07-19T09:16:37.158Z,7.33
2017-07-19T09:19:05.654Z,10.60
2017-07-19T09:21:33.902Z,8.10
2017-07-19T09:24:02.453Z,6.70
2017-07-19T09:26:30.709Z,6.33
2017-07-19T09:28:58.947Z,7.40
2017-07-19T09:31:27.257Z,12.60
2017-07-19T09:33:55.727Z,6.50
2017-07-19T09:36:23.963Z,6.50
2017-07-19T09:38:52.226Z,6.30
2017-07-19T09:41:20.457Z,4.13
2017-07-19T09:43:48.919Z,5.03
2017-07-19T09:46:17.463Z,4.43
2017-07-19T09:48:58.209Z,6.00
2017-07-19T09:51:26.545Z,6.87
2017-07-19T09:53:55.938Z,6.03
2017-07-19T09:56:24.363Z,7.77
2017-07-19T09:58:52.718Z,6.73
2017-07-19T10:01:21.047Z,5.30
2017-07-19T10:03:49.304Z,5.33
2017-07-19T10:06:17.801Z,8.53
2017-07-19T10:08:46.048Z,7.80
2017-07-19T10:11:15.437Z,8.33
2017-07-19T10:13:43.741Z,8.93
2017-07-19T10:16:12.039Z,4.70
2017-07-19T10:18:40.299Z,8.93
2017-07-19T10:21:09.370Z,9.30
2017-07-19T10:23:37.978Z,4.60
2017-07-19T10:26:08.532Z,8.10
2017-07-19T10:28:36.800Z,4.77
2017-07-19T10:31:05.040Z,4.27
2017-07-19T10:33:33.282Z,6.47
2017-07-19T10:36:01.562Z,7.70
2017-07-19T10:38:29.800Z,4.67
2017-07-19T10:40:58.053Z,4.97
2017-07-19T10:43:26.320Z,7.00
2017-07-19T10:45:55.087Z,5.70
2017-07-19T10:48:23.563Z,6.30
2017-07-19T10:50:51.856Z,7.77
2017-07-19T10:53:20.453Z,8.07
2017-07-19T10:55:49.121Z,5.87
2017-07-19T10:58:17.417Z,5.03
2017-07-19T11:00:45.663Z,6.07
2017-07-19T11:03:14.161Z,14.90
2017-07-19T11:05:42.435Z,7.50
2017-07-19T11:08:11.098Z,12.37
2017-07-19T11:10:39.601Z,11.43
2017-07-19T11:13:09.096Z,5.63
2017-07-19T11:15:37.399Z,7.67
2017-07-19T11:18:05.778Z,7.30
2017-07-19T11:20:34.093Z,5.63
2017-07-19T11:23:02.351Z,6.20
2017-07-19T11:25:30.595Z,7.13
2017-07-19T11:27:59.104Z,8.50
2017-07-19T11:30:27.340Z,6.60
2017-07-19T11:32:56.708Z,7.10
2017-07-19T11:35:25.215Z,6.43
2017-07-19T11:37:53.459Z,7.10
2017-07-19T11:40:21.736Z,5.80
2017-07-19T11:42:50.239Z,7.67
2017-07-19T11:45:18.498Z,7.43
2017-07-19T11:47:46.746Z,6.43
2017-07-19T11:50:15.063Z,5.20
2017-07-19T11:52:43.318Z,5.00
2017-07-19T11:55:11.570Z,8.50
2017-07-19T11:57:40.576Z,8.70
2017-07-19T12:00:08.870Z,9.20
2017-07-19T12:02:37.201Z,9.43
2017-07-19T12:05:05.625Z,5.50
2017-07-19T12:07:33.918Z,8.00
2017-07-19T12:10:02.203Z,7.83
2017-07-19T12:12:31.320Z,6.27
2017-07-19T12:14:59.566Z,11.03
2017-07-19T12:17:27.848Z,6.20
2017-07-19T12:19:56.331Z,8.10
2017-07-19T12:22:24.596Z,9.53
2017-07-19T12:24:52.891Z,7.50
2017-07-19T12:27:21.173Z,6.93
2017-07-19T12:29:49.952Z,6.00
2017-07-19T12:32:18.232Z,10.23
2017-07-19T12:34:46.574Z,8.30
2017-07-19T12:37:14.820Z,9.47
2017-07-19T12:39:43.115Z,9.60
2017-07-19T12:42:11.742Z,7.73
2017-07-19T12:44:40.003Z,7.13
2017-07-19T12:47:08.353Z,6.67
2017-07-19T12:49:37.075Z,8.63
2017-07-19T12:52:05.381Z,9.53
2017-07-19T12:54:34.414Z,7.87
2017-07-19T12:57:02.752Z,9.57
2017-07-19T12:59:31.467Z,11.13
2017-07-19T13:01:59.696Z,7.67
2017-07-19T13:04:27.963Z,9.23
2017-07-19T13:06:56.839Z,6.53
2017-07-19T13:09:25.161Z,11.33
2017-07-19T13:11:53.861Z,9.50
2017-07-19T13:14:22.108Z,6.37
2017-07-19T13:16:50.780Z,10.23
2017-07-19T13:19:19.118Z,6.47
2017-07-19T13:21:47.361Z,6.73
2017-07-19T13:24:15.988Z,7.23
2017-07-19T13:26:44.277Z,11.33
2017-07-19T13:29:12.522Z,7.90
2017-07-19T13:31:40.755Z,7.67
2017-07-19T13:34:09.066Z,6.70
2017-07-19T13:36:37.340Z,6.60
2017-07-19T13:39:05.650Z,8.60
2017-07-19T13:41:34.837Z,7.13
2017-07-19T13:44:03.207Z,8.33
2017-07-19T13:46:31.620Z,6.17
2017-07-19T13:48:59.957Z,10.80
2017-07-19T13:51:28.279Z,9.47
2017-07-19T13:53:56.877Z,8.67
2017-07-19T13:56:25.194Z,10.07
2017-07-19T13:58:53.500Z,6.90
2017-07-19T14:01:21.782Z,7.87
2017-07-19T14:03:50.168Z,8.70
2017-07-19T14:06:18.479Z,8.40
2017-07-19T14:08:46.735Z,11.00
2017-07-19T14:11:15.027Z,11.03
2017-07-19T14:13:43.708Z,8.00
2017-07-19T14:16:11.944Z,8.40
2017-07-19T14:18:40.236Z,6.37
2017-07-19T14:21:08.740Z,8.57
2017-07-19T14:23:37.012Z,9.70
2017-07-19T14:26:05.726Z,6.80
2017-07-19T14:28:34.049Z,8.23
2017-07-19T14:31:02.360Z,6.90
2017-07-19T14:33:30.698Z,11.43
2017-07-19T14:35:59.196Z,6.43
2017-07-19T14:38:27.457Z,11.53
2017-07-19T14:41:15.984Z,7.10
2017-07-19T14:43:45.157Z,8.47
2017-07-19T14:46:13.477Z,10.63
2017-07-19T14:48:41.796Z,8.03
2017-07-19T14:51:10.062Z,6.87
2017-07-19T14:53:38.395Z,7.10
2017-07-19T14:56:06.632Z,7.37
2017-07-19T14:58:35.305Z,6.50
2017-07-19T15:01:03.593Z,6.77
2017-07-19T15:03:32.233Z,5.93
2017-07-19T15:06:00.554Z,6.77
2017-07-19T15:08:28.815Z,9.97
2017-07-19T15:10:57.178Z,8.87
2017-07-19T15:13:25.416Z,8.23
2017-07-19T15:15:53.712Z,7.73
2017-07-19T15:18:22.733Z,6.50
2017-07-19T15:20:51.750Z,7.30
2017-07-19T15:23:20.484Z,6.83
2017-07-19T15:25:48.725Z,6.90
2017-07-19T15:28:16.956Z,6.50
2017-07-19T15:30:45.230Z,7.37
2017-07-19T15:33:13.472Z,6.40
2017-07-19T15:35:41.740Z,7.17
2017-07-19T15:38:10.265Z,9.40
2017-07-19T15:40:38.540Z,7.03
2017-07-19T15:43:06.813Z,10.13
2017-07-19T15:45:35.113Z,6.30
2017-07-19T15:48:03.412Z,7.03
2017-07-19T15:50:33.087Z,7.63
2017-07-19T15:53:01.348Z,7.80
2017-07-19T15:55:29.668Z,9.23
2017-07-19T15:57:57.957Z,7.57
2017-07-19T16:00:26.242Z,7.80
2017-07-19T16:02:54.551Z,7.47
2017-07-19T16:05:22.805Z,8.27
2017-07-19T16:07:51.195Z,9.40
2017-07-19T16:10:19.514Z,8.03
2017-07-19T16:12:48.171Z,8.73
2017-07-19T16:15:16.415Z,9.90
2017-07-19T16:17:44.968Z,9.67
2017-07-19T16:20:13.209Z,8.20
2017-07-19T16:22:41.449Z,7.43
2017-07-19T16:25:09.750Z,8.93
2017-07-19T16:27:38.293Z,16.13
2017-07-19T16:30:06.606Z,7.23
2017-07-19T16:32:34.851Z,8.23
2017-07-19T16:35:03.111Z,9.33
2017-07-19T16:37:31.829Z,7.27
2017-07-19T16:40:00.116Z,10.90
2017-07-19T16:42:28.601Z,8.90
2017-07-19T16:44:56.892Z,9.90
2017-07-19T16:47:25.148Z,6.83
2017-07-19T16:49:53.384Z,8.90
2017-07-19T16:52:21.717Z,8.43
2017-07-19T16:54:50.109Z,7.47
2017-07-19T16:57:18.398Z,8.77
2017-07-19T16:59:46.677Z,7.93
2017-07-19T17:02:15.335Z,7.23
2017-07-19T17:04:43.613Z,9.27
2017-07-19T17:07:11.908Z,12.00
2017-07-19T17:09:40.287Z,8.37
2017-07-19T17:12:08.549Z,10.37
2017-07-19T17:14:36.878Z,8.63
2017-07-19T17:17:05.212Z,8.57
2017-07-19T17:19:33.520Z,8.27
2017-07-19T17:22:01.812Z,15.03
2017-07-19T17:24:30.285Z,8.47
2017-07-19T17:26:58.549Z,8.30
2017-07-19T17:29:26.909Z,10.83
2017-07-19T17:31:55.630Z,8.30
2017-07-19T17:34:24.051Z,8.73
2017-07-19T17:36:52.321Z,7.57
2017-07-19T17:39:20.568Z,7.73
2017-07-19T17:41:48.854Z,9.10
2017-07-19T17:44:17.143Z,9.17
2017-07-19T17:46:45.435Z,7.70
2017-07-19T17:49:13.783Z,9.50
2017-07-19T17:51:42.258Z,8.07
2017-07-19T17:54:10.542Z,9.40
2017-07-19T17:56:38.780Z,8.30
2017-07-19T17:59:07.060Z,10.43
2017-07-19T18:01:35.999Z,13.90
2017-07-19T18:04:04.257Z,11.20
2017-07-19T18:06:33.325Z,10.30
2017-07-19T18:09:01.667Z,10.50
2017-07-19T18:11:29.975Z,12.20
2017-07-19T18:13:58.250Z,10.80
2017-07-19T18:16:26.567Z,12.17
2017-07-19T18:18:54.941Z,14.10
2017-07-19T18:21:23.240Z,10.03
2017-07-19T18:23:51.484Z,10.93
2017-07-19T18:26:20.171Z,9.83
2017-07-19T18:28:49.145Z,13.40
2017-07-19T18:31:17.404Z,9.40
2017-07-19T18:33:45.674Z,11.90
2017-07-19T18:36:14.343Z,11.50
2017-07-19T18:38:42.637Z,11.53
2017-07-19T18:41:11.298Z,9.20
2017-07-19T18:43:39.557Z,10.47
2017-07-19T18:46:07.804Z,9.27
2017-07-19T18:48:36.076Z,11.37
2017-07-19T18:51:04.409Z,11.27
2017-07-19T18:53:32.669Z,9.40
2017-07-19T18:56:00.906Z,14.00
2017-07-19T18:58:29.194Z,9.17
2017-07-19T19:00:57.430Z,9.90
2017-07-19T19:03:25.733Z,9.30
2017-07-19T19:05:53.984Z,10.93
2017-07-19T19:08:22.809Z,11.30
2017-07-19T19:10:51.096Z,11.83
2017-07-19T19:13:19.333Z,10.63
2017-07-19T19:15:47.588Z,11.20
2017-07-19T19:18:15.945Z,10.70
2017-07-19T19:20:44.224Z,12.53
2017-07-19T19:23:19.239Z,10.10
2017-07-19T19:25:48.057Z,12.73
2017-07-19T19:28:16.324Z,10.50
2017-07-19T19:30:44.634Z,9.80
2017-07-19T19:33:12.888Z,12.57
2017-07-19T19:35:41.157Z,13.70
2017-07-19T19:38:09.412Z,10.70
2017-07-19T19:40:37.674Z,13.20
2017-07-19T19:43:05.925Z,9.60
2017-07-19T19:45:34.199Z,9.67
2017-07-19T19:48:02.468Z,14.73
2017-07-19T19:50:31.100Z,10.40
2017-07-19T19:52:59.393Z,15.60
2017-07-19T19:55:27.638Z,11.33
2017-07-19T19:57:55.878Z,10.93
2017-07-19T20:00:24.197Z,13.40
2017-07-19T20:02:52.581Z,11.77
2017-07-19T20:05:20.916Z,20.13
2017-07-19T20:07:49.212Z,14.43
2017-07-19T20:10:17.553Z,10.03
2017-07-19T20:12:45.802Z,11.00
2017-07-19T20:15:14.553Z,16.27
2017-07-19T20:17:42.817Z,12.30
2017-07-19T20:20:11.058Z,9.33
2017-07-19T20:22:39.556Z,15.00
2017-07-19T20:25:08.203Z,11.27
2017-07-19T20:27:36.437Z,11.10
2017-07-19T20:30:04.736Z,12.20
2017-07-19T20:32:32.999Z,11.53
2017-07-19T20:35:01.248Z,10.30
2017-07-19T20:37:29.518Z,11.90
2017-07-19T20:39:57.805Z,15.50
2017-07-19T20:42:26.071Z,11.17
2017-07-19T20:44:54.317Z,11.50
2017-07-19T20:47:22.568Z,10.70
2017-07-19T20:49:50.848Z,12.27
2017-07-19T20:52:19.105Z,12.53
2017-07-19T20:54:47.353Z,15.50
2017-07-19T20:57:15.644Z,11.93
2017-07-19T20:59:44.105Z,12.20
2017-07-19T21:02:12.392Z,11.20
2017-07-19T21:04:40.704Z,12.80
2017-07-19T21:07:08.971Z,11.03
2017-07-19T21:09:37.247Z,12.70
2017-07-19T21:12:05.539Z,13.40
2017-07-19T21:14:33.908Z,13.67
2017-07-19T21:17:02.206Z,10.23
2017-07-19T21:19:30.477Z,11.97
2017-07-19T21:21:58.869Z,14.97
2017-07-19T21:24:27.131Z,10.03
2017-07-19T21:26:55.408Z,15.67
2017-07-19T21:29:23.665Z,11.63
2017-07-19T21:31:51.906Z,11.77
2017-07-19T21:34:21.944Z,12.80
2017-07-19T21:36:50.565Z,11.90
2017-07-19T21:39:18.903Z,12.70
2017-07-19T21:41:47.220Z,18.23
2017-07-19T21:44:15.463Z,10.70
2017-07-19T21:46:43.717Z,14.00
2017-07-19T21:49:12.012Z,11.00
2017-07-19T21:51:40.273Z,10.40
2017-07-19T21:54:08.906Z,13.23
2017-07-19T21:56:37.226Z,13.93
2017-07-19T21:59:05.472Z,12.63
2017-07-19T22:01:34.234Z,11.20
2017-07-19T22:04:02.769Z,13.03
2017-07-19T22:06:31.424Z,14.13
2017-07-19T22:09:00.089Z,10.50
2017-07-19T22:11:28.689Z,11.17
2017-07-19T22:13:56.932Z,14.33
2017-07-19T22:16:25.198Z,11.13
2017-07-19T22:18:53.460Z,12.50
2017-07-19T22:21:21.726Z,10.50
2017-07-19T22:23:49.985Z,16.13
2017-07-19T22:26:18.642Z,14.57
2017-07-19T22:28:46.894Z,12.90
2017-07-19T22:31:15.172Z,12.10
2017-07-19T22:33:43.433Z,14.93
2017-07-19T22:36:11.673Z,13.17
2017-07-19T22:38:39.948Z,10.83
2017-07-19T22:41:08.593Z,16.53
2017-07-19T22:43:36.836Z,11.90
2017-07-19T22:46:05.120Z,15.13
2017-07-19T22:48:33.364Z,20.17
2017-07-19T22:51:01.625Z,16.50
2017-07-19T22:53:30.151Z,20.90
2017-07-19T22:55:58.406Z,22.63
2017-07-19T22:58:26.665Z,16.53
2017-07-19T23:00:54.938Z,19.07
2017-07-19T23:03:23.203Z,18.90
2017-07-19T23:05:51.453Z,19.57
2017-07-19T23:08:19.727Z,19.03
2017-07-19T23:10:47.973Z,21.13
2017-07-19T23:13:16.233Z,21.80
2017-07-19T23:15:44.898Z,15.80
2017-07-19T23:18:13.395Z,21.00
2017-07-19T23:20:42.371Z,20.83
2017-07-19T23:23:10.677Z,21.70
2017-07-19T23:25:38.930Z,22.00
2017-07-19T23:28:07.176Z,20.10
2017-07-19T23:30:35.457Z,23.73
2017-07-19T23:33:03.705Z,16.57
2017-07-19T23:35:31.961Z,19.50
2017-07-19T23:38:00.271Z,14.90
2017-07-19T23:40:28.524Z,20.03
2017-07-19T23:42:56.799Z,22.20
2017-07-19T23:45:25.057Z,22.90
2017-07-19T23:47:53.705Z,23.87
2017-07-19T23:50:21.993Z,28.30
2017-07-19T23:52:50.254Z,26.73
2017-07-19T23:55:18.495Z,22.90
2017-07-19T23:57:46.777Z,26.50
